sensor_id;sensor_type;location;lat;lon;timestamp;P1;durP1;ratioP1;P2;durP2;ratioP2
6926;SDS011;3503;50.07605000;8.86719200;2024-03-23T00:59:02;12.23;;;9.30;;
6926;SDS011;3503;50.07605000;8.86719200;2024-03-23T01:14:06;15.67;;;11.43;;
6926;SDS011;3503;50.07605000;8.86719200;2024-03-23T01:29:09;15.87;;;11.40;;
6926;SDS011;3503;50.07605000;8.86719200;2024-03-23T01:44:12;21.90;;;11.00;;
6926;SDS011;3503;50.07605000;8.86719200;2024-03-23T01:59:16;21.20;;;12.57;;
6926;SDS011;3503;50.07605000;8.86719200;2024-03-23T02:14:19;17.90;;;11.30;;
6926;SDS011;3503;50.07605000;8.86719200;2024-03-23T02:29:22;20.07;;;14.17;;
6926;SDS011;3503;50.07605000;8.86719200;2024-03-23T02:44:25;18.40;;;13.30;;
6926;SDS011;3503;50.07605000;8.86719200;2024-03-23T02:59:28;21.40;;;14.00;;
6926;SDS011;3503;50.07605000;8.86719200;2024-03-23T03:14:31;21.90;;;14.40;;
6926;SDS011;3503;50.07605000;8.86719200;2024-03-23T03:29:34;28.10;;;15.67;;
6926;SDS011;3503;50.07605000;8.86719200;2024-03-23T03:44:37;27.43;;;17.00;;
6926;SDS011;3503;50.07605000;8.86719200;2024-03-23T03:59:41;26.00;;;15.40;;
6926;SDS011;3503;50.07605000;8.86719200;2024-03-23T04:14:44;31.90;;;16.83;;
6926;SDS011;3503;50.07605000;8.86719200;2024-03-23T04:29:47;28.93;;;15.83;;
6926;SDS011;3503;50.07605000;8.86719200;2024-03-23T04:44:51;30.83;;;17.63;;
6926;SDS011;3503;50.07605000;8.86719200;2024-03-23T04:59:54;18.80;;;11.43;;
6926;SDS011;3503;50.07605000;8.86719200;2024-03-23T05:14:56;4.07;;;2.10;;
6926;SDS011;3503;50.07605000;8.86719200;2024-03-23T05:29:59;1.20;;;0.70;;
6926;SDS011;3503;50.07605000;8.86719200;2024-03-23T05:45:03;2.13;;;0.50;;
6926;SDS011;3503;50.07605000;8.86719200;2024-03-23T06:00:08;1.77;;;0.80;;
6926;SDS011;3503;50.07605000;8.86719200;2024-03-23T06:15:17;1.40;;;0.60;;
6926;SDS011;3503;50.07605000;8.86719200;2024-03-23T06:30:20;1.33;;;0.40;;
6926;SDS011;3503;50.07605000;8.86719200;2024-03-23T06:45:23;0.80;;;0.30;;
6926;SDS011;3503;50.07605000;8.86719200;2024-03-23T07:00:26;1.17;;;0.53;;
6926;SDS011;3503;50.07605000;8.86719200;2024-03-23T07:15:29;1.37;;;0.83;;
6926;SDS011;3503;50.07605000;8.86719200;2024-03-23T07:30:31;2.70;;;0.40;;
6926;SDS011;3503;50.07605000;8.86719200;2024-03-23T07:45:34;2.63;;;0.60;;
6926;SDS011;3503;50.07605000;8.86719200;2024-03-23T08:00:39;5.33;;;0.60;;
6926;SDS011;3503;50.07605000;8.86719200;2024-03-23T08:15:42;4.70;;;1.03;;
6926;SDS011;3503;50.07605000;8.86719200;2024-03-23T08:30:45;9.17;;;1.83;;
6926;SDS011;3503;50.07605000;8.86719200;2024-03-23T08:45:48;8.80;;;3.10;;
6926;SDS011;3503;50.07605000;8.86719200;2024-03-23T09:00:51;10.50;;;2.80;;
6926;SDS011;3503;50.07605000;8.86719200;2024-03-23T09:15:57;7.53;;;2.73;;
6926;SDS011;3503;50.07605000;8.86719200;2024-03-23T09:31:03;12.10;;;3.67;;
6926;SDS011;3503;50.07605000;8.86719200;2024-03-23T09:46:06;5.80;;;2.40;;
6926;SDS011;3503;50.07605000;8.86719200;2024-03-23T10:01:10;10.93;;;2.97;;
6926;SDS011;3503;50.07605000;8.86719200;2024-03-23T10:16:14;9.60;;;3.40;;
6926;SDS011;3503;50.07605000;8.86719200;2024-03-23T10:31:23;15.77;;;2.60;;
6926;SDS011;3503;50.07605000;8.86719200;2024-03-23T10:46:26;10.30;;;2.10;;
6926;SDS011;3503;50.07605000;8.86719200;2024-03-23T11:01:29;17.23;;;2.30;;
6926;SDS011;3503;50.07605000;8.86719200;2024-03-23T11:16:32;12.47;;;2.60;;
6926;SDS011;3503;50.07605000;8.86719200;2024-03-23T11:31:37;6.20;;;1.30;;
6926;SDS011;3503;50.07605000;8.86719200;2024-03-23T11:46:40;7.40;;;1.80;;
6926;SDS011;3503;50.07605000;8.86719200;2024-03-23T12:01:43;9.00;;;1.93;;
6926;SDS011;3503;50.07605000;8.86719200;2024-03-23T12:16:46;4.47;;;1.07;;
6926;SDS011;3503;50.07605000;8.86719200;2024-03-23T12:31:49;5.93;;;2.30;;
6926;SDS011;3503;50.07605000;8.86719200;2024-03-23T12:46:52;10.83;;;1.53;;
6926;SDS011;3503;50.07605000;8.86719200;2024-03-23T13:01:55;11.90;;;2.07;;
6926;SDS011;3503;50.07605000;8.86719200;2024-03-23T13:16:58;10.90;;;3.43;;
6926;SDS011;3503;50.07605000;8.86719200;2024-03-23T13:32:01;6.80;;;1.00;;
6926;SDS011;3503;50.07605000;8.86719200;2024-03-23T13:47:05;3.10;;;1.10;;
6926;SDS011;3503;50.07605000;8.86719200;2024-03-23T14:02:08;6.60;;;0.87;;
6926;SDS011;3503;50.07605000;8.86719200;2024-03-23T14:17:13;2.30;;;0.70;;
6926;SDS011;3503;50.07605000;8.86719200;2024-03-23T14:32:16;4.10;;;1.10;;
6926;SDS011;3503;50.07605000;8.86719200;2024-03-23T14:47:19;3.60;;;1.03;;
6926;SDS011;3503;50.07605000;8.86719200;2024-03-23T15:02:22;2.77;;;1.13;;
6926;SDS011;3503;50.07605000;8.86719200;2024-03-23T15:17:25;3.60;;;1.50;;
6926;SDS011;3503;50.07605000;8.86719200;2024-03-23T15:32:28;4.47;;;1.63;;
6926;SDS011;3503;50.07605000;8.86719200;2024-03-23T15:47:31;2.93;;;1.30;;
6926;SDS011;3503;50.07605000;8.86719200;2024-03-23T16:02:34;3.73;;;1.80;;
6926;SDS011;3503;50.07605000;8.86719200;2024-03-23T16:17:37;2.37;;;0.80;;
6926;SDS011;3503;50.07605000;8.86719200;2024-03-23T16:32:40;3.07;;;0.70;;
6926;SDS011;3503;50.07605000;8.86719200;2024-03-23T16:47:43;6.13;;;0.80;;
6926;SDS011;3503;50.07605000;8.86719200;2024-03-23T17:02:48;3.20;;;1.10;;
6926;SDS011;3503;50.07605000;8.86719200;2024-03-23T17:17:51;3.50;;;1.20;;
6926;SDS011;3503;50.07605000;8.86719200;2024-03-23T17:32:54;3.60;;;1.27;;
6926;SDS011;3503;50.07605000;8.86719200;2024-03-23T17:47:57;11.87;;;7.10;;
6926;SDS011;3503;50.07605000;8.86719200;2024-03-23T18:03:00;6.53;;;4.90;;
6926;SDS011;3503;50.07605000;8.86719200;2024-03-23T18:18:04;1.57;;;0.90;;
6926;SDS011;3503;50.07605000;8.86719200;2024-03-23T18:33:07;2.03;;;0.80;;
6926;SDS011;3503;50.07605000;8.86719200;2024-03-23T18:48:10;1.57;;;0.57;;
6926;SDS011;3503;50.07605000;8.86719200;2024-03-23T19:03:13;5.07;;;1.77;;
6926;SDS011;3503;50.07605000;8.86719200;2024-03-23T19:18:16;3.23;;;0.90;;
6926;SDS011;3503;50.07605000;8.86719200;2024-03-23T19:33:19;7.47;;;1.30;;
6926;SDS011;3503;50.07605000;8.86719200;2024-03-23T19:48:23;4.70;;;1.23;;
6926;SDS011;3503;50.07605000;8.86719200;2024-03-23T20:03:26;5.70;;;1.60;;
6926;SDS011;3503;50.07605000;8.86719200;2024-03-23T20:18:28;2.33;;;0.93;;
6926;SDS011;3503;50.07605000;8.86719200;2024-03-23T20:33:32;2.50;;;0.70;;
6926;SDS011;3503;50.07605000;8.86719200;2024-03-23T20:48:36;2.80;;;0.90;;
6926;SDS011;3503;50.07605000;8.86719200;2024-03-23T21:03:42;1.73;;;0.63;;
6926;SDS011;3503;50.07605000;8.86719200;2024-03-23T21:18:44;1.93;;;0.50;;
6926;SDS011;3503;50.07605000;8.86719200;2024-03-23T21:33:47;1.93;;;0.60;;
6926;SDS011;3503;50.07605000;8.86719200;2024-03-23T21:48:50;3.13;;;1.23;;
6926;SDS011;3503;50.07605000;8.86719200;2024-03-23T22:03:53;8.20;;;1.50;;
6926;SDS011;3503;50.07605000;8.86719200;2024-03-23T22:18:56;6.40;;;2.43;;
6926;SDS011;3503;50.07605000;8.86719200;2024-03-23T22:33:59;5.60;;;2.30;;
6926;SDS011;3503;50.07605000;8.86719200;2024-03-23T22:49:02;6.97;;;3.20;;
6926;SDS011;3503;50.07605000;8.86719200;2024-03-23T23:04:06;10.20;;;3.60;;
6926;SDS011;3503;50.07605000;8.86719200;2024-03-23T23:19:09;7.00;;;3.80;;
6926;SDS011;3503;50.07605000;8.86719200;2024-03-23T23:34:12;7.17;;;3.30;;
6926;SDS011;3503;50.07605000;8.86719200;2024-03-23T23:49:15;5.93;;;2.90;;
